Time;durP1;ratioP1;P1;durP2;ratioP2;P2;SDS_P1;SDS_P2;PMS_P1;PMS_P2;Temp;Humidity;BMP_temperature;BMP_pressure;BME280_temperature;BME280_humidity;BME280_pressure;Samples;Min_cycle;Max_cycle;Signal;HPM_P1;HPM_P2
2021/09/26 00:01:40;;;;;;;2.15;1.10;;;;;;;18.32;100.00;101064.06;5008730;28;20036;-64
2021/09/26 00:04:06;;;;;;;2.22;1.30;;;;;;;18.33;100.00;101062.13;5021056;28;20030;-64
2021/09/26 00:06:31;;;;;;;2.05;1.45;;;;;;;18.38;100.00;101058.97;5013062;28;20418;-64
2021/09/26 00:08:57;;;;;;;1.58;1.48;;;;;;;18.40;100.00;101062.06;5010253;28;20391;-63
2021/09/26 00:11:23;;;;;;;2.05;1.27;;;;;;;18.43;100.00;101062.09;5024191;28;20108;-63
2021/09/26 00:13:48;;;;;;;3.72;1.52;;;;;;;18.43;100.00;101059.34;5014057;28;20497;-64
2021/09/26 00:16:14;;;;;;;3.88;1.33;;;;;;;18.42;100.00;101065.19;5012865;28;20030;-64
2021/09/26 00:18:40;;;;;;;2.50;1.65;;;;;;;18.41;100.00;101058.16;5012845;28;20033;-64
2021/09/26 00:21:06;;;;;;;2.17;1.40;;;;;;;18.41;100.00;101058.16;5011370;28;20093;-64
2021/09/26 00:23:34;;;;;;;2.65;1.50;;;;;;;18.40;100.00;101064.81;4995260;28;20046;-63
2021/09/26 00:26:03;;;;;;;3.58;1.65;;;;;;;18.34;100.00;101059.00;5004232;28;20501;-64
2021/09/26 00:28:29;;;;;;;1.63;1.38;;;;;;;18.32;100.00;101060.56;5027021;28;20461;-64
2021/09/26 00:30:55;;;;;;;1.83;1.23;;;;;;;18.29;100.00;101062.13;5011722;28;20041;-64
2021/09/26 00:33:21;;;;;;;4.78;1.80;;;;;;;18.30;100.00;101060.16;5017649;28;20030;-64
2021/09/26 00:35:47;;;;;;;2.60;1.40;;;;;;;18.25;100.00;101061.38;5018902;28;20559;-64
2021/09/26 00:38:13;;;;;;;2.47;1.50;;;;;;;18.22;100.00;101053.97;5029277;22;20113;-64
2021/09/26 00:40:38;;;;;;;1.98;1.33;;;;;;;18.11;100.00;101068.81;5024455;28;20037;-63
2021/09/26 00:43:04;;;;;;;1.35;1.20;;;;;;;18.08;100.00;101059.47;5027092;28;20041;-62
2021/09/26 00:45:30;;;;;;;1.45;1.25;;;;;;;18.07;100.00;101059.88;5027357;28;20057;-62
2021/09/26 00:47:56;;;;;;;2.28;1.55;;;;;;;18.05;100.00;101060.28;5031804;28;20517;-62
2021/09/26 00:50:21;;;;;;;2.60;1.55;;;;;;;18.01;100.00;101063.03;5020808;28;20057;-62
2021/09/26 00:52:48;;;;;;;3.53;1.48;;;;;;;17.97;100.00;101064.97;5025084;28;20117;-63
2021/09/26 00:55:15;;;;;;;2.35;1.38;;;;;;;17.97;100.00;101064.97;5017673;28;20038;-62
2021/09/26 00:57:42;;;;;;;2.80;1.52;;;;;;;17.86;100.00;101061.53;5022667;28;20037;-62
2021/09/26 01:00:11;;;;;;;4.10;1.65;;;;;;;17.81;100.00;101053.72;5031973;28;20047;-62
2021/09/26 01:02:36;;;;;;;3.80;2.00;;;;;;;17.87;100.00;101060.34;5021249;28;20033;-63
2021/09/26 01:05:03;;;;;;;3.55;1.95;;;;;;;17.94;100.00;101063.03;5027586;28;20038;-63
2021/09/26 01:07:34;;;;;;;3.60;1.80;;;;;;;17.97;100.00;101059.53;5016384;28;20409;-62
2021/09/26 01:10:25;;;;;;;4.03;1.88;;;;;;;17.95;100.00;101058.38;5021763;28;20026;-63
2021/09/26 01:13:30;;;;;;;2.53;1.52;;;;;;;17.97;100.00;101064.19;5031227;28;20037;-62
2021/09/26 01:16:11;;;;;;;3.22;1.80;;;;;;;18.04;100.00;101058.72;5021112;28;20029;-63
2021/09/26 01:18:50;;;;;;;2.00;1.65;;;;;;;18.07;100.00;101054.44;5022036;28;20030;-62
2021/09/26 01:21:42;;;;;;;3.13;1.75;;;;;;;18.07;100.00;101057.16;5030751;28;20041;-62
2021/09/26 01:24:29;;;;;;;3.45;1.63;;;;;;;18.11;100.00;101055.19;5004308;28;20068;-62
2021/09/26 01:27:33;;;;;;;4.53;1.77;;;;;;;18.09;100.00;101054.81;5031074;28;20385;-62
2021/09/26 01:30:44;;;;;;;3.40;1.90;;;;;;;18.09;100.00;101060.25;5007760;28;20053;-62
2021/09/26 01:33:33;;;;;;;2.65;2.00;;;;;;;18.10;100.00;101061.84;5018955;28;20099;-63
2021/09/26 01:35:59;;;;;;;2.50;1.88;;;;;;;18.14;100.00;101046.25;5028824;28;20032;-62
2021/09/26 01:38:32;;;;;;;2.53;2.03;;;;;;;18.14;100.00;101047.00;5031224;28;20497;-62
2021/09/26 01:41:02;;;;;;;3.20;2.15;;;;;;;18.15;100.00;101047.78;5030592;28;20053;-62
2021/09/26 01:43:35;;;;;;;2.53;1.87;;;;;;;18.16;100.00;101047.38;5019094;28;20034;-63
2021/09/26 01:46:05;;;;;;;3.40;2.10;;;;;;;18.17;100.00;101054.41;5023857;28;20571;-62
2021/09/26 01:48:40;;;;;;;2.40;1.77;;;;;;;18.13;100.00;101052.84;5030917;28;20037;-62
2021/09/26 01:51:06;;;;;;;2.78;2.00;;;;;;;18.16;100.00;101049.31;5025610;28;20048;-63
2021/09/26 01:53:33;;;;;;;2.75;1.98;;;;;;;18.16;100.00;101050.09;5019063;28;20056;-62
2021/09/26 01:56:00;;;;;;;4.22;2.42;;;;;;;18.17;100.00;101057.13;5023335;28;20180;-62
2021/09/26 01:58:28;;;;;;;4.85;1.85;;;;;;;18.17;100.00;101059.06;5002512;28;20036;-63
2021/09/26 02:00:53;;;;;;;4.40;2.35;;;;;;;18.19;100.00;101057.50;5023996;28;20033;-64
2021/09/26 02:03:20;;;;;;;3.80;2.20;;;;;;;18.20;100.00;101047.34;5029317;28;20406;-62
2021/09/26 02:05:47;;;;;;;2.92;2.13;;;;;;;18.22;100.00;101051.25;5030865;28;20513;-62
2021/09/26 02:08:13;;;;;;;3.58;2.17;;;;;;;18.21;100.00;101044.25;5029931;28;20399;-62
2021/09/26 02:10:43;;;;;;;2.50;1.90;;;;;;;18.19;100.00;101046.59;5026380;28;20128;-63
2021/09/26 02:13:09;;;;;;;2.88;1.90;;;;;;;18.20;100.00;101050.09;5029728;28;20355;-62
2021/09/26 02:15:36;;;;;;;2.38;1.83;;;;;;;18.16;100.00;101049.31;5030426;28;20029;-62
2021/09/26 02:18:04;;;;;;;3.30;2.25;;;;;;;18.17;100.00;101051.66;5030917;28;20099;-61
2021/09/26 02:20:30;;;;;;;4.20;2.20;;;;;;;18.16;100.00;101041.13;5024828;28;20386;-62
2021/09/26 02:22:58;;;;;;;4.60;2.25;;;;;;;18.15;100.00;101053.22;5023769;28;20029;-61
2021/09/26 02:25:24;;;;;;;4.20;2.28;;;;;;;18.17;100.00;101050.88;5029832;28;20087;-62
2021/09/26 02:27:50;;;;;;;3.40;2.00;;;;;;;18.16;100.00;101043.88;5021217;28;20050;-62
2021/09/26 02:30:16;;;;;;;2.78;1.80;;;;;;;18.15;100.00;101043.09;5019665;28;20029;-62
2021/09/26 02:32:43;;;;;;;2.28;1.65;;;;;;;18.15;100.00;101040.38;5021985;28;20383;-62
2021/09/26 02:35:11;;;;;;;2.97;1.95;;;;;;;18.13;100.00;101052.84;5018453;28;20034;-62
2021/09/26 02:37:37;;;;;;;6.10;2.10;;;;;;;18.13;100.00;101044.66;5022590;28;20439;-62
2021/09/26 02:40:05;;;;;;;4.20;2.47;;;;;;;18.12;100.00;101048.59;5018242;28;20109;-62
2021/09/26 02:43:08;;;;;;;3.45;1.90;;;;;;;18.06;100.00;101039.25;5024407;28;20123;-62
2021/09/26 02:45:40;;;;;;;3.17;2.10;;;;;;;18.11;100.00;101044.28;5027936;28;20040;-63
2021/09/26 02:48:27;;;;;;;3.50;2.00;;;;;;;18.11;100.00;101036.09;5024663;28;20041;-63
2021/09/26 02:50:54;;;;;;;2.85;1.95;;;;;;;18.17;100.00;101039.97;5023918;28;20068;-63
2021/09/26 02:53:20;;;;;;;2.80;2.22;;;;;;;18.11;100.00;101041.56;5021747;28;20037;-61
2021/09/26 02:55:48;;;;;;;3.13;2.15;;;;;;;18.10;100.00;101040.78;5029604;28;20064;-62
2021/09/26 02:58:14;;;;;;;3.60;2.33;;;;;;;18.08;100.00;101045.09;5022638;28;20180;-62
2021/09/26 03:00:43;;;;;;;3.80;2.17;;;;;;;18.08;100.00;101031.47;5029129;28;20029;-63
2021/09/26 03:03:28;;;;;;;3.97;2.13;;;;;;;18.08;100.00;101045.09;5029712;28;20037;-62
2021/09/26 03:05:55;;;;;;;3.17;2.22;;;;;;;18.11;100.00;101038.84;5012272;28;20692;-62
2021/09/26 03:08:21;;;;;;;4.40;2.22;;;;;;;18.12;100.00;101034.94;5021861;28;20037;-63
2021/09/26 03:10:50;;;;;;;3.97;2.15;;;;;;;18.13;100.00;101022.84;5029416;28;20056;-62
2021/09/26 03:13:16;;;;;;;5.65;2.38;;;;;;;18.12;100.00;101041.16;5021481;28;20033;-62
2021/09/26 03:15:42;;;;;;;5.32;2.75;;;;;;;18.15;100.00;101034.16;5028827;28;20025;-62
2021/09/26 03:18:07;;;;;;;4.60;2.90;;;;;;;18.12;100.00;101030.25;5029695;28;20555;-62
2021/09/26 03:20:33;;;;;;;4.43;2.65;;;;;;;18.16;100.00;101027.50;5028877;28;20497;-62
2021/09/26 03:22:59;;;;;;;6.32;2.95;;;;;;;18.12;100.00;101037.69;5025446;28;20033;-63
2021/09/26 03:25:25;;;;;;;4.55;2.95;;;;;;;17.99;100.00;101035.38;5021967;28;20043;-62
2021/09/26 03:27:50;;;;;;;4.85;2.92;;;;;;;18.12;100.00;101034.94;5019914;28;20032;-63
2021/09/26 03:30:16;;;;;;;4.68;2.92;;;;;;;18.11;100.00;101031.44;5013806;28;20416;-62
2021/09/26 03:32:42;;;;;;;4.53;2.83;;;;;;;18.07;100.00;101022.50;5024589;28;20037;-63
2021/09/26 03:35:09;;;;;;;4.93;2.97;;;;;;;17.98;100.00;101024.88;5032451;28;20069;-63
2021/09/26 03:37:35;;;;;;;6.20;3.25;;;;;;;18.01;100.00;101021.34;5032608;28;20028;-63
2021/09/26 03:40:03;;;;;;;7.78;2.72;;;;;;;18.05;100.00;101019.38;5027628;28;20111;-63
2021/09/26 03:42:29;;;;;;;5.50;2.78;;;;;;;18.10;100.00;101024.41;5031936;28;20041;-63
2021/09/26 03:44:55;;;;;;;4.85;2.70;;;;;;;18.01;100.00;101022.13;5009628;28;20041;-63
2021/09/26 03:47:20;;;;;;;5.18;2.95;;;;;;;18.08;100.00;101021.31;5025389;28;20108;-64
2021/09/26 03:49:46;;;;;;;5.22;2.90;;;;;;;18.04;100.00;101018.59;5030182;28;20087;-63
2021/09/26 03:52:13;;;;;;;4.25;2.58;;;;;;;17.99;100.00;101015.53;5032070;28;20041;-63
2021/09/26 03:54:38;;;;;;;4.95;3.00;;;;;;;18.04;100.00;101009.66;5032894;28;20025;-63
2021/09/26 03:57:04;;;;;;;6.63;3.30;;;;;;;18.11;100.00;101008.84;5029805;28;20092;-63
2021/09/26 03:59:29;;;;;;;6.30;3.05;;;;;;;18.18;100.00;101014.25;5030136;28;20400;-63
2021/09/26 04:01:55;;;;;;;5.53;3.15;;;;;;;18.13;100.00;101006.50;5025539;28;20087;-63
2021/09/26 04:04:20;;;;;;;5.40;3.45;;;;;;;18.12;100.00;101015.88;5026137;28;20482;-63
2021/09/26 04:06:46;;;;;;;6.05;3.10;;;;;;;18.09;100.00;101005.75;5025529;28;20033;-62
2021/09/26 04:09:12;;;;;;;8.60;3.35;;;;;;;18.07;100.00;101002.63;5032490;28;20034;-62
2021/09/26 04:11:38;;;;;;;4.78;2.75;;;;;;;18.08;100.00;101004.94;5007032;28;20026;-62
2021/09/26 04:14:04;;;;;;;6.75;3.15;;;;;;;18.07;100.00;100994.44;5029644;28;20033;-62
2021/09/26 04:16:31;;;;;;;7.53;3.20;;;;;;;18.08;100.00;100998.75;5023968;28;20038;-63
2021/09/26 04:18:57;;;;;;;6.45;3.67;;;;;;;18.08;100.00;101004.94;5027289;28;20029;-63
2021/09/26 04:21:23;;;;;;;6.22;3.53;;;;;;;18.08;100.00;101001.47;5021463;28;20500;-62
2021/09/26 04:23:49;;;;;;;7.45;4.00;;;;;;;18.14;100.00;101000.66;5031278;28;20485;-62
2021/09/26 04:26:16;;;;;;;6.28;3.40;;;;;;;18.11;100.00;101000.66;5031902;28;20026;-62
2021/09/26 04:28:42;;;;;;;6.78;3.17;;;;;;;18.10;100.00;100994.44;5026724;28;20035;-62
2021/09/26 04:31:07;;;;;;;6.55;3.67;;;;;;;18.13;100.00;100999.09;5031811;28;20401;-63
2021/09/26 04:33:33;;;;;;;7.38;3.25;;;;;;;18.19;100.00;100994.78;5028346;28;20033;-62
2021/09/26 04:35:58;;;;;;;5.50;3.42;;;;;;;18.19;100.00;100999.47;5032212;28;20038;-62
2021/09/26 04:38:25;;;;;;;5.32;3.55;;;;;;;18.12;100.00;100997.53;5031866;28;20033;-62
2021/09/26 04:40:51;;;;;;;6.30;3.47;;;;;;;18.10;100.00;100996.41;5031364;28;20037;-63
2021/09/26 04:43:16;;;;;;;7.95;3.40;;;;;;;18.14;100.00;101002.63;5021530;28;20034;-62
2021/09/26 04:45:42;;;;;;;7.60;3.75;;;;;;;18.22;100.00;100998.66;5028950;28;20033;-63
2021/09/26 04:48:07;;;;;;;9.43;3.83;;;;;;;18.21;100.00;100994.38;5014066;28;20037;-63
2021/09/26 04:50:34;;;;;;;7.88;3.70;;;;;;;18.23;100.00;100992.81;5030732;28;20134;-62
2021/09/26 04:53:00;;;;;;;6.50;3.60;;;;;;;18.15;100.00;100990.53;5024674;28;20494;-62
2021/09/26 04:55:27;;;;;;;6.60;3.60;;;;;;;18.21;100.00;100992.44;5031092;28;20033;-62
2021/09/26 04:57:53;;;;;;;7.30;4.15;;;;;;;18.24;100.00;100990.84;5014843;28;20092;-63
2021/09/26 05:00:19;;;;;;;9.38;3.92;;;;;;;18.18;100.00;100993.22;5027624;28;20017;-63
2021/09/26 05:02:45;;;;;;;8.05;3.78;;;;;;;18.18;100.00;100985.03;5023287;28;20045;-62
2021/09/26 05:05:10;;;;;;;7.78;4.07;;;;;;;18.20;100.00;100993.59;5027272;28;20037;-62
2021/09/26 05:07:36;;;;;;;6.90;3.58;;;;;;;18.18;100.00;100997.91;5019203;28;20072;-62
2021/09/26 05:10:03;;;;;;;6.75;4.03;;;;;;;18.21;100.00;101003.34;5018867;28;20119;-62
2021/09/26 05:12:29;;;;;;;8.85;4.55;;;;;;;18.18;100.00;100997.91;5030126;28;20091;-61
2021/09/26 05:14:56;;;;;;;6.05;3.72;;;;;;;18.15;100.00;100993.25;5031607;28;20029;-62
2021/09/26 05:17:22;;;;;;;6.78;4.18;;;;;;;18.23;100.00;100994.78;5023780;28;20045;-64
2021/09/26 05:19:47;;;;;;;6.53;3.95;;;;;;;18.23;100.00;100994.78;5018744;28;20018;-62
2021/09/26 05:22:14;;;;;;;6.43;3.67;;;;;;;18.24;100.00;100996.31;5025177;28;20064;-62
2021/09/26 05:24:40;;;;;;;7.32;3.80;;;;;;;18.19;100.00;100996.75;5027276;28;20049;-62
2021/09/26 05:27:05;;;;;;;9.75;4.28;;;;;;;18.14;100.00;100991.72;5024498;28;20041;-62
2021/09/26 05:29:31;;;;;;;8.80;4.13;;;;;;;18.22;100.00;100995.94;5026086;28;20064;-62
2021/09/26 05:31:56;;;;;;;9.52;4.53;;;;;;;18.18;100.00;100992.44;5030265;28;20048;-62
2021/09/26 05:34:22;;;;;;;10.98;4.57;;;;;;;18.18;100.00;101000.63;5030870;28;20033;-62
2021/09/26 05:36:48;;;;;;;8.95;4.72;;;;;;;18.19;100.00;100994.00;5026781;28;20045;-63
2021/09/26 05:39:14;;;;;;;6.28;3.88;;;;;;;18.18;100.00;101000.63;5028379;28;20037;-62
2021/09/26 05:41:40;;;;;;;7.15;4.43;;;;;;;18.18;100.00;100997.91;5027756;28;20099;-62
2021/09/26 05:44:05;;;;;;;7.18;3.83;;;;;;;18.21;100.00;100988.94;5025901;28;20091;-62
2021/09/26 05:46:30;;;;;;;8.88;4.47;;;;;;;18.22;100.00;100994.00;5027778;28;20025;-63
2021/09/26 05:48:56;;;;;;;8.63;4.45;;;;;;;18.16;100.00;100992.84;5028170;28;20040;-62
2021/09/26 05:51:21;;;;;;;7.32;4.28;;;;;;;18.23;100.00;100989.31;5023777;28;20410;-63
2021/09/26 05:53:47;;;;;;;7.88;4.03;;;;;;;18.28;100.00;100997.06;5030197;28;20037;-63
2021/09/26 05:56:13;;;;;;;9.13;4.07;;;;;;;18.27;100.00;100992.81;5027023;28;20468;-62
2021/09/26 05:58:38;;;;;;;7.55;4.30;;;;;;;18.24;100.00;101001.75;5030737;28;20072;-62
2021/09/26 06:01:04;;;;;;;7.88;4.10;;;;;;;18.23;100.00;101002.94;5019292;28;20033;-62
2021/09/26 06:03:29;;;;;;;8.65;3.95;;;;;;;18.23;100.00;101003.72;5030521;28;20028;-63
2021/09/26 06:05:55;;;;;;;6.75;4.22;;;;;;;18.29;100.00;101004.84;5025049;28;20552;-62
2021/09/26 06:08:20;;;;;;;7.15;3.85;;;;;;;18.36;100.00;101004.03;5021238;28;20104;-63
2021/09/26 06:10:46;;;;;;;7.68;4.00;;;;;;;18.37;100.00;101000.16;5009857;28;20508;-62
2021/09/26 06:13:12;;;;;;;6.95;4.03;;;;;;;18.40;100.00;101004.78;5029940;28;20038;-62
2021/09/26 06:15:38;;;;;;;8.35;4.68;;;;;;;18.42;100.00;101013.34;5021144;28;20448;-62
2021/09/26 06:18:03;;;;;;;8.13;4.40;;;;;;;18.43;100.00;101004.00;5029816;28;20033;-63
2021/09/26 06:20:29;;;;;;;7.20;4.05;;;;;;;18.44;100.00;101000.91;5022505;28;20152;-62
2021/09/26 06:22:55;;;;;;;7.22;3.97;;;;;;;18.46;100.00;101004.03;5028928;28;20093;-63
2021/09/26 06:25:20;;;;;;;6.68;3.83;;;;;;;18.43;100.00;100999.34;5029992;28;20041;-63
2021/09/26 06:27:46;;;;;;;6.25;3.80;;;;;;;18.44;100.00;100997.41;5029982;28;20048;-62
2021/09/26 06:30:12;;;;;;;7.88;4.13;;;;;;;18.45;100.00;100996.22;5014490;28;20056;-62
2021/09/26 06:32:38;;;;;;;6.18;3.75;;;;;;;18.49;100.00;100997.75;5021926;28;20123;-62
2021/09/26 06:35:06;;;;;;;8.25;4.68;;;;;;;18.50;100.00;100998.53;5019941;28;20033;-63
2021/09/26 06:37:32;;;;;;;9.00;4.30;;;;;;;18.49;100.00;101003.22;5023238;28;20029;-62
2021/09/26 06:39:57;;;;;;;8.00;4.53;;;;;;;18.46;100.00;100997.78;5030000;22;20042;-63
2021/09/26 06:42:23;;;;;;;7.45;4.10;;;;;;;18.51;100.00;101000.84;4986494;28;20041;-64
2021/09/26 06:44:49;;;;;;;9.10;4.15;;;;;;;18.54;100.00;101000.03;4986165;28;20046;-64
2021/09/26 06:47:14;;;;;;;9.68;4.00;;;;;;;18.60;100.00;101008.59;4967353;28;20049;-64
2021/09/26 06:49:40;;;;;;;7.97;3.70;;;;;;;18.59;100.00;101010.56;4974089;28;20145;-64
2021/09/26 06:52:06;;;;;;;7.75;4.03;;;;;;;18.59;100.00;101005.09;4988580;28;20037;-64
2021/09/26 06:54:31;;;;;;;11.63;4.22;;;;;;;18.66;100.00;101012.47;4990578;28;20049;-64
2021/09/26 06:56:57;;;;;;;9.57;3.92;;;;;;;18.67;100.00;101006.59;4990789;28;20058;-64
2021/09/26 06:59:22;;;;;;;6.45;3.40;;;;;;;18.72;100.00;101010.84;4982597;28;20037;-64
2021/09/26 07:01:48;;;;;;;7.97;4.13;;;;;;;18.71;100.00;100999.16;4985011;28;20061;-64
2021/09/26 07:04:13;;;;;;;5.88;3.72;;;;;;;18.73;100.00;101005.00;4985567;28;20030;-64
2021/09/26 07:06:39;;;;;;;7.25;3.72;;;;;;;18.78;100.00;101003.78;4976891;28;20101;-64
2021/09/26 07:09:05;;;;;;;6.35;3.60;;;;;;;18.87;100.00;101001.38;4977164;28;20034;-65
2021/09/26 07:11:30;;;;;;;8.13;3.40;;;;;;;18.88;100.00;101000.97;4982130;28;20486;-64
2021/09/26 07:13:56;;;;;;;7.13;3.40;;;;;;;18.92;100.00;101003.69;4993469;28;20089;-65
2021/09/26 07:16:22;;;;;;;4.97;2.72;;;;;;;18.95;100.00;101005.59;4985652;28;20435;-65
2021/09/26 07:18:49;;;;;;;6.07;3.28;;;;;;;19.05;100.00;101006.72;4987996;28;20015;-65
2021/09/26 07:21:15;;;;;;;5.60;3.60;;;;;;;19.22;100.00;101005.75;4987535;28;20141;-65
2021/09/26 07:23:42;;;;;;;6.10;3.17;;;;;;;19.39;100.00;101000.16;4983413;28;20038;-64
2021/09/26 07:26:07;;;;;;;6.75;3.60;;;;;;;19.57;100.00;101010.88;4985049;28;20149;-65
2021/09/26 07:28:33;;;;;;;6.75;3.50;;;;;;;19.73;100.00;101005.63;4990540;28;20068;-65
2021/09/26 07:30:59;;;;;;;6.22;3.00;;;;;;;19.85;100.00;101004.34;4992554;28;20089;-65
2021/09/26 07:33:24;;;;;;;7.03;3.63;;;;;;;20.02;100.00;101003.34;4990012;28;20093;-64
2021/09/26 07:35:50;;;;;;;6.05;3.20;;;;;;;20.21;100.00;101008.97;4978452;28;20042;-64
2021/09/26 07:38:15;;;;;;;3.92;2.45;;;;;;;20.40;100.00;101011.03;4991185;28;20045;-64
2021/09/26 07:40:41;;;;;;;5.30;3.28;;;;;;;20.57;99.62;101012.00;4989750;28;20850;-64
2021/09/26 07:43:06;;;;;;;4.78;2.70;;;;;;;20.68;99.05;101005.16;4975934;28;20095;-64
2021/09/26 07:45:33;;;;;;;5.05;2.78;;;;;;;20.87;97.86;101002.91;4982681;28;20033;-64
2021/09/26 07:47:58;;;;;;;5.18;2.78;;;;;;;21.00;97.55;101004.63;4991120;28;20108;-64
2021/09/26 07:50:26;;;;;;;4.43;2.60;;;;;;;21.10;96.31;101013.94;4993593;28;20042;-64
2021/09/26 07:52:53;;;;;;;5.38;2.92;;;;;;;21.26;95.84;101003.84;4989661;28;20030;-65
2021/09/26 07:55:19;;;;;;;4.65;2.60;;;;;;;21.41;94.90;101007.88;4983197;28;20035;-64
2021/09/26 07:57:45;;;;;;;4.90;2.55;;;;;;;21.53;93.95;101011.97;4993445;28;20451;-65
2021/09/26 08:00:11;;;;;;;10.00;3.35;;;;;;;21.58;93.28;101005.22;4987106;28;20479;-65
2021/09/26 08:02:40;;;;;;;3.38;2.20;;;;;;;21.67;92.76;101005.44;4988716;28;20034;-65
2021/09/26 08:05:07;;;;;;;4.88;2.38;;;;;;;21.86;93.57;101007.44;4992960;28;20026;-65
2021/09/26 08:07:33;;;;;;;2.90;2.17;;;;;;;22.02;92.78;101004.75;4988444;28;20234;-64
2021/09/26 08:09:59;;;;;;;3.05;2.33;;;;;;;22.13;91.93;101002.53;4993195;28;20152;-65
2021/09/26 08:12:25;;;;;;;4.20;2.42;;;;;;;22.20;91.96;101005.16;4987813;28;20046;-65
2021/09/26 08:14:51;;;;;;;3.38;2.30;;;;;;;22.32;90.93;101009.97;4993520;28;20045;-64
2021/09/26 08:17:19;;;;;;;3.90;2.35;;;;;;;22.39;90.35;101005.13;4980716;28;20053;-65
2021/09/26 08:19:45;;;;;;;2.92;1.90;;;;;;;22.54;90.27;101005.56;4982743;28;20410;-65
2021/09/26 08:22:11;;;;;;;4.10;2.33;;;;;;;22.67;88.94;101003.69;4992738;28;20038;-65
2021/09/26 08:24:36;;;;;;;2.88;2.33;;;;;;;22.92;87.89;101005.84;4990035;28;20068;-65
2021/09/26 08:27:03;;;;;;;3.03;2.05;;;;;;;23.03;87.54;101001.66;4986222;28;20043;-64
2021/09/26 08:29:29;;;;;;;3.53;2.00;;;;;;;23.12;85.38;101007.31;4990854;28;20038;-65
2021/09/26 08:31:55;;;;;;;2.90;2.25;;;;;;;23.29;85.67;100999.78;4987897;28;20045;-65
2021/09/26 08:34:21;;;;;;;2.53;1.98;;;;;;;23.44;84.71;100994.72;4991770;28;20102;-64
2021/09/26 08:36:47;;;;;;;3.33;2.05;;;;;;;23.59;83.67;100996.66;4992716;28;20046;-65
2021/09/26 08:39:12;;;;;;;3.30;2.33;;;;;;;23.65;83.35;101005.94;4988654;28;20023;-65
2021/09/26 08:41:38;;;;;;;2.80;2.10;;;;;;;23.79;82.86;101004.75;4976172;28;20042;-65
2021/09/26 08:44:05;;;;;;;2.90;1.92;;;;;;;23.87;81.48;101015.09;4977921;28;20121;-65
2021/09/26 08:46:31;;;;;;;3.15;2.25;;;;;;;23.91;82.04;101001.25;4992315;28;20121;-65
2021/09/26 08:48:57;;;;;;;3.55;2.15;;;;;;;24.00;80.98;101001.38;4986454;28;20045;-65
2021/09/26 08:51:23;;;;;;;3.53;2.28;;;;;;;24.07;79.42;101001.19;4985104;28;20034;-65
2021/09/26 08:53:50;;;;;;;2.75;1.85;;;;;;;24.19;79.72;101008.72;4991872;28;20089;-65
2021/09/26 08:56:22;;;;;;;2.30;1.80;;;;;;;24.34;79.02;101009.81;4992363;28;20411;-65
2021/09/26 08:58:49;;;;;;;2.85;1.90;;;;;;;24.53;79.80;101011.59;4987826;28;20027;-65
2021/09/26 09:01:16;;;;;;;2.50;1.92;;;;;;;24.60;78.73;101003.06;4989119;28;20045;-65
2021/09/26 09:03:47;;;;;;;2.42;2.00;;;;;;;24.66;78.53;101006.81;4987740;28;20099;-65
2021/09/26 09:06:14;;;;;;;3.72;1.90;;;;;;;24.82;77.50;101005.97;4970481;28;20030;-65
2021/09/26 09:08:40;;;;;;;2.47;2.03;;;;;;;24.96;77.24;101000.75;4976526;28;20031;-65
2021/09/26 09:11:08;;;;;;;2.35;1.83;;;;;;;25.10;77.19;100999.53;4991019;28;20168;-65
2021/09/26 09:13:40;;;;;;;2.15;1.75;;;;;;;25.27;75.87;101014.69;4991076;28;20038;-65
2021/09/26 09:16:13;;;;;;;2.47;1.80;;;;;;;25.42;73.91;101009.47;4990235;28;20507;-65
2021/09/26 09:18:51;;;;;;;2.60;1.85;;;;;;;25.66;74.34;101000.31;4990028;28;20034;-65
2021/09/26 09:21:25;;;;;;;2.25;1.67;;;;;;;26.05;74.31;101001.63;4991467;28;20033;-65
2021/09/26 09:24:14;;;;;;;2.25;1.70;;;;;;;26.50;70.80;101010.13;4987304;28;20062;-65
2021/09/26 09:26:43;;;;;;;2.47;1.85;;;;;;;26.87;67.99;101013.81;4971888;28;20054;-64
2021/09/26 09:29:08;;;;;;;2.20;2.00;;;;;;;26.84;68.30;101011.97;4990804;28;20023;-64
2021/09/26 09:31:45;;;;;;;2.28;1.85;;;;;;;26.73;65.67;101004.09;4983903;28;20577;-64
2021/09/26 09:34:29;;;;;;;1.95;1.73;;;;;;;26.50;68.42;101001.09;4980941;28;20031;-65
2021/09/26 09:37:14;;;;;;;3.15;1.85;;;;;;;26.45;69.20;100996.94;4972336;28;20034;-65
2021/09/26 09:39:42;;;;;;;1.98;1.88;;;;;;;26.32;68.29;100999.03;4975835;28;20084;-65
2021/09/26 09:42:19;;;;;;;2.20;1.65;;;;;;;26.30;68.24;100998.72;4974777;28;20038;-65
2021/09/26 09:44:45;;;;;;;4.25;1.95;;;;;;;26.30;69.33;100995.94;4969864;28;20038;-65
2021/09/26 09:47:11;;;;;;;2.08;1.65;;;;;;;26.36;70.33;100996.91;4984031;28;20092;-64
2021/09/26 09:49:37;;;;;;;3.55;1.73;;;;;;;26.30;68.30;100982.13;4975195;28;20031;-64
2021/09/26 09:52:03;;;;;;;3.45;1.90;;;;;;;26.40;68.81;100994.00;4975607;28;20162;-64
2021/09/26 09:54:35;;;;;;;2.67;1.60;;;;;;;26.43;69.87;100999.38;4984027;28;20380;-65
2021/09/26 09:57:30;;;;;;;2.95;1.98;;;;;;;26.44;70.02;100989.09;4988248;28;20033;-65
2021/09/26 09:59:56;;;;;;;2.05;1.80;;;;;;;26.42;68.50;100986.78;4969521;28;20093;-65
2021/09/26 10:02:33;;;;;;;2.22;1.73;;;;;;;26.58;70.36;100989.28;4972663;28;20066;-65
2021/09/26 10:04:59;;;;;;;4.55;1.65;;;;;;;26.66;68.29;100984.25;4983319;28;20040;-65
2021/09/26 10:07:28;;;;;;;2.00;1.80;;;;;;;26.63;68.84;100985.16;4990580;28;20117;-65
2021/09/26 10:09:56;;;;;;;2.58;1.80;;;;;;;26.61;67.78;100982.88;4980861;28;20038;-64
2021/09/26 10:12:26;;;;;;;2.40;1.65;;;;;;;26.57;67.01;100984.22;4990433;28;20026;-65
2021/09/26 10:14:55;;;;;;;3.88;1.50;;;;;;;26.50;66.88;100992.81;4981100;28;20042;-65
2021/09/26 10:17:21;;;;;;;2.38;1.67;;;;;;;26.44;66.54;100984.31;4989109;28;20491;-65
2021/09/26 10:19:47;;;;;;;1.83;1.60;;;;;;;26.28;67.24;100987.34;4982179;28;20065;-64
2021/09/26 10:22:16;;;;;;;2.45;1.45;;;;;;;26.36;66.56;100974.81;4971558;28;20022;-65
2021/09/26 10:24:45;;;;;;;1.98;1.42;;;;;;;26.39;65.44;100973.88;4983405;28;20038;-64
2021/09/26 10:27:13;;;;;;;1.98;1.65;;;;;;;26.38;67.25;100982.63;4991013;28;20053;-65
2021/09/26 10:29:41;;;;;;;2.88;1.85;;;;;;;26.28;64.70;100970.78;4969229;28;20137;-65
2021/09/26 10:32:09;;;;;;;2.30;1.60;;;;;;;26.25;66.29;100963.38;4985967;28;20076;-65
2021/09/26 10:34:36;;;;;;;2.75;1.98;;;;;;;26.23;67.20;100963.06;4974663;28;20054;-65
2021/09/26 10:37:05;;;;;;;2.42;2.13;;;;;;;26.20;66.98;100957.69;4979439;28;20059;-65
2021/09/26 10:39:32;;;;;;;3.08;2.13;;;;;;;26.27;67.68;100960.94;4988931;28;20041;-65
2021/09/26 10:42:11;;;;;;;2.28;1.67;;;;;;;26.33;66.70;100970.16;4991845;28;20034;-65
2021/09/26 10:44:45;;;;;;;3.30;2.40;;;;;;;26.32;65.57;100965.09;4987028;28;20030;-66
2021/09/26 10:47:20;;;;;;;2.42;2.13;;;;;;;26.24;66.24;100961.84;4992711;28;20098;-65
2021/09/26 10:49:50;;;;;;;2.53;2.10;;;;;;;26.28;67.35;100951.44;4988443;28;20042;-65
2021/09/26 10:52:28;;;;;;;2.30;1.70;;;;;;;26.43;68.54;100948.88;4990477;28;20490;-65
2021/09/26 10:54:55;;;;;;;2.70;1.90;;;;;;;26.46;66.63;100957.00;4992899;28;20038;-65
2021/09/26 10:57:26;;;;;;;2.85;1.88;;;;;;;26.56;66.62;100950.28;4967249;28;20475;-66
2021/09/26 10:59:54;;;;;;;3.05;2.00;;;;;;;26.56;65.91;100941.22;4973384;28;20410;-65
2021/09/26 11:02:23;;;;;;;2.85;2.30;;;;;;;26.62;66.01;100944.91;4977214;28;20391;-65
2021/09/26 11:04:50;;;;;;;2.40;1.98;;;;;;;26.44;63.58;100945.63;4971682;28;20117;-64
2021/09/26 11:07:18;;;;;;;9.65;2.30;;;;;;;26.37;64.31;100945.94;4975156;28;20487;-65
2021/09/26 11:09:51;;;;;;;2.15;1.95;;;;;;;26.36;64.52;100947.16;4987632;28;20058;-65
2021/09/26 11:12:39;;;;;;;2.88;2.13;;;;;;;26.42;66.98;100933.53;4986862;28;20145;-65
2021/09/26 11:15:10;;;;;;;3.00;2.17;;;;;;;26.48;67.14;100926.91;4982873;28;20046;-65
2021/09/26 11:17:47;;;;;;;2.42;2.00;;;;;;;26.39;65.57;100926.91;4989339;28;20040;-65
2021/09/26 11:20:36;;;;;;;3.28;2.10;;;;;;;26.23;65.98;100934.69;4990569;28;20399;-65
2021/09/26 11:23:04;;;;;;;3.20;2.03;;;;;;;26.06;67.02;100931.38;4977512;28;20492;-65
2021/09/26 11:26:03;;;;;;;6.03;2.13;;;;;;;25.99;67.95;100937.16;4978072;28;20410;-65